Continental Highway — H9LY — position and weather

sailwx.info

Track history (hours):
 
Tides and Currents Weather Stations Pressure Air Temp Water Temp Dewpoint Dewpoint Depression Visibility Wind Speed Wind Dir Waves Ship Positions

Continental Highway

Last reported at 2014-Aug-19 07:03 UTC. Time now 2014-Aug-20 08:53 UTC.
Position N 27°30' W 118°06'.

Length 199.9 m; beam 32.2 m.

Type: Cargo ship. MMSI: 351223000.

Date/timePositionNaut miles runAvg speedWind from/ knotsBaromVisibWave heightAir tempDewpointWater temp
2014-Aug-19 07:03N 27°30' W 118°06'916.2
2014-Aug-19 06:32N 27°35' W 118°14'3215.9
2014-Aug-19 04:30N 27°54' W 118°44'1516.1
2014-Aug-19 03:34N 28°03' W 118°57'1616.4
2014-Aug-19 02:33N 28°13' W 119°12'1616.2
2014-Aug-19 01:33N 28°22' W 119°27'1616.1
2014-Aug-19 00:34N 28°32' W 119°42'1615.9
2014-Aug-18 23:34N 28°41' W 119°56'1615.9
2014-Aug-18 22:34N 28°51' W 120°11'1616.1
2014-Aug-18 21:33N 29°00' W 120°26'1616.2
2014-Aug-18 20:34N 29°09' W 120°41'1616.1
2014-Aug-18 19:34N 29°19' W 120°56'1616.2
2014-Aug-18 18:33N 29°29' W 121°11'1616.3
2014-Aug-18 17:34N 29°38' W 121°26'1616.5
2014-Aug-18 16:34N 29°48' W 121°41'1716.7
2014-Aug-18 15:34N 29°58' W 121°57'1716.7
2014-Aug-18 14:34N 30°07' W 122°13'1716.4
2014-Aug-18 13:33N 30°16' W 122°29'1716.6
2014-Aug-18 12:34N 30°24' W 122°45'1716.5
2014-Aug-18 11:33N 30°33' W 123°02'1616.4
2014-Aug-18 10:34N 30°42' W 123°18'1616.3
2014-Aug-18 09:33N 30°50' W 123°34'1616.5
2014-Aug-18 08:34N 30°59' W 123°50'1616.3
2014-Aug-18 07:34N 31°08' W 124°06'1616.2
2014-Aug-18 06:33N 31°16' W 124°23'1616.4
2014-Aug-18 05:34N 31°25' W 124°39'1616.1
2014-Aug-18 04:33N 31°34' W 124°55'2116.2
2014-Aug-18 03:14N 31°45' W 125°16'1216.0
2014-Aug-18 02:30N 31°51' W 125°28'1615.9
2014-Aug-18 01:30N 31°59' W 125°44'2015.8
2014-Aug-18 00:12N 32°10' W 126°05'9215.9
2014-Aug-17 18:24N 32°59' W 127°38'1316.1
2014-Aug-17 17:34N 33°06' W 127°51'8116.0
2014-Aug-17 12:30N 33°49' W 129°13'  
Track history (hours):
 
Tides and Currents Weather Stations Pressure Air Temp Water Temp Dewpoint Dewpoint Depression Visibility Wind Speed Wind Dir Waves Ship Positions

Continental Highway

Last reported at 2014-Aug-19 07:03 UTC. Time now 2014-Aug-20 08:53 UTC.
Position N 27°30' W 118°06'.

Length 199.9 m; beam 32.2 m.

Type: Cargo ship. MMSI: 351223000.

Date/timePositionNaut miles runAvg speedWind from/ knotsBaromVisibWave heightAir tempDewpointWater temp
2014-Aug-19 07:03N 27°30' W 118°06'916.2
2014-Aug-19 06:32N 27°35' W 118°14'3215.9
2014-Aug-19 04:30N 27°54' W 118°44'1516.1
2014-Aug-19 03:34N 28°03' W 118°57'1616.4
2014-Aug-19 02:33N 28°13' W 119°12'1616.2
2014-Aug-19 01:33N 28°22' W 119°27'1616.1
2014-Aug-19 00:34N 28°32' W 119°42'1615.9
2014-Aug-18 23:34N 28°41' W 119°56'1615.9
2014-Aug-18 22:34N 28°51' W 120°11'1616.1
2014-Aug-18 21:33N 29°00' W 120°26'1616.2
2014-Aug-18 20:34N 29°09' W 120°41'1616.1
2014-Aug-18 19:34N 29°19' W 120°56'1616.2
2014-Aug-18 18:33N 29°29' W 121°11'1616.3
2014-Aug-18 17:34N 29°38' W 121°26'1616.5
2014-Aug-18 16:34N 29°48' W 121°41'1716.7
2014-Aug-18 15:34N 29°58' W 121°57'1716.7
2014-Aug-18 14:34N 30°07' W 122°13'1716.4
2014-Aug-18 13:33N 30°16' W 122°29'1716.6
2014-Aug-18 12:34N 30°24' W 122°45'1716.5
2014-Aug-18 11:33N 30°33' W 123°02'1616.4
2014-Aug-18 10:34N 30°42' W 123°18'1616.3
2014-Aug-18 09:33N 30°50' W 123°34'1616.5
2014-Aug-18 08:34N 30°59' W 123°50'1616.3
2014-Aug-18 07:34N 31°08' W 124°06'1616.2
2014-Aug-18 06:33N 31°16' W 124°23'1616.4
2014-Aug-18 05:34N 31°25' W 124°39'1616.1
2014-Aug-18 04:33N 31°34' W 124°55'2116.2
2014-Aug-18 03:14N 31°45' W 125°16'1216.0
2014-Aug-18 02:30N 31°51' W 125°28'1615.9
2014-Aug-18 01:30N 31°59' W 125°44'2015.8
2014-Aug-18 00:12N 32°10' W 126°05'9215.9
2014-Aug-17 18:24N 32°59' W 127°38'1316.1
2014-Aug-17 17:34N 33°06' W 127°51'8116.0
2014-Aug-17 12:30N 33°49' W 129°13'  

Dump ship's entire track history